createdAt,value
2023-07-18T00:05:02.105Z,100.00
2023-07-18T00:10:05.249Z,100.00
2023-07-18T00:15:10.783Z,100.00
2023-07-18T00:20:15.130Z,100.00
2023-07-18T00:25:20.765Z,100.00
2023-07-18T00:30:23.810Z,100.00
2023-07-18T00:35:28.270Z,100.00
2023-07-18T00:40:31.090Z,100.00
2023-07-18T00:45:33.816Z,100.00
2023-07-18T00:50:37.752Z,100.00
2023-07-18T00:55:41.447Z,100.00
2023-07-18T01:00:44.203Z,100.00
2023-07-18T01:05:46.888Z,100.00
2023-07-18T01:10:50.011Z,100.00
2023-07-18T01:15:53.142Z,100.00
2023-07-18T01:20:56.458Z,100.00
2023-07-18T01:25:59.205Z,100.00
2023-07-18T01:31:01.943Z,100.00
2023-07-18T01:36:04.898Z,100.00
2023-07-18T01:41:08.648Z,100.00
2023-07-18T01:46:11.397Z,100.00
2023-07-18T01:51:14.781Z,100.00
2023-07-18T01:56:17.533Z,100.00
2023-07-18T02:01:20.514Z,100.00
2023-07-18T02:06:26.245Z,100.00
2023-07-18T02:11:29.015Z,100.00
2023-07-18T02:16:32.004Z,100.00
2023-07-18T02:21:34.749Z,100.00
2023-07-18T02:26:37.701Z,100.00
2023-07-18T02:31:40.956Z,100.00
2023-07-18T02:36:43.752Z,100.00
2023-07-18T02:41:46.427Z,100.00
2023-07-18T02:46:49.265Z,100.00
2023-07-18T02:51:51.926Z,100.00
2023-07-18T02:56:54.682Z,100.00
2023-07-18T03:02:00.326Z,100.00
2023-07-18T03:07:04.366Z,100.00
2023-07-18T03:12:07.797Z,100.00
2023-07-18T03:17:12.565Z,100.00
2023-07-18T03:22:15.961Z,100.00
2023-07-18T03:27:19.452Z,100.00
2023-07-18T03:32:22.189Z,100.00
2023-07-18T03:37:26.949Z,100.00
2023-07-18T03:42:29.659Z,100.00
2023-07-18T03:47:32.724Z,100.00
2023-07-18T03:52:35.552Z,100.00
2023-07-18T03:57:38.848Z,100.00
2023-07-18T04:02:47.189Z,100.00
2023-07-18T04:07:50.516Z,100.00
2023-07-18T04:12:53.335Z,100.00
2023-07-18T04:17:56.077Z,100.00
2023-07-18T04:22:59.233Z,100.00
2023-07-18T04:28:02.442Z,100.00
2023-07-18T04:33:05.119Z,100.00
2023-07-18T04:38:07.908Z,100.00
2023-07-18T04:43:11.097Z,100.00
2023-07-18T04:48:18.321Z,100.00
2023-07-18T04:53:21.058Z,100.00
2023-07-18T04:58:28.452Z,100.00
2023-07-18T05:03:41.007Z,100.00
2023-07-18T05:08:55.221Z,100.00
2023-07-18T05:13:58.100Z,100.00
2023-07-18T05:19:00.742Z,100.00
2023-07-18T05:24:03.669Z,100.00
2023-07-18T05:29:06.385Z,100.00
2023-07-18T05:34:09.077Z,100.00
2023-07-18T05:39:12.500Z,100.00
2023-07-18T05:44:17.776Z,100.00
2023-07-18T05:49:20.577Z,100.00
2023-07-18T05:54:23.970Z,100.00
2023-07-18T05:59:31.793Z,100.00
2023-07-18T06:04:36.425Z,100.00
2023-07-18T06:09:39.877Z,100.00
2023-07-18T06:14:42.636Z,100.00
2023-07-18T06:19:47.683Z,100.00
2023-07-18T06:24:50.547Z,100.00
2023-07-18T06:29:53.554Z,100.00
2023-07-18T06:34:58.591Z,100.00
2023-07-18T06:40:04.104Z,100.00
2023-07-18T06:45:08.168Z,100.00
2023-07-18T06:50:12.555Z,99.43
2023-07-18T06:55:15.277Z,99.10
2023-07-18T07:00:21.373Z,98.67
2023-07-18T07:05:24.154Z,96.04
2023-07-18T07:10:27.175Z,94.26
2023-07-18T07:15:29.897Z,93.89
2023-07-18T07:20:34.082Z,90.67
2023-07-18T07:25:36.822Z,89.75
2023-07-18T07:30:39.754Z,88.52
2023-07-18T07:35:44.612Z,86.37
2023-07-18T07:40:47.341Z,86.44
2023-07-18T07:45:50.132Z,85.78
2023-07-18T07:50:52.849Z,85.91
2023-07-18T07:55:55.598Z,85.93
2023-07-18T08:00:58.321Z,81.96
2023-07-18T08:06:01.823Z,78.86
2023-07-18T08:11:04.980Z,79.01
2023-07-18T08:16:07.792Z,78.15
2023-07-18T08:21:10.535Z,76.29
2023-07-18T08:26:13.806Z,75.50
2023-07-18T08:31:16.585Z,75.35
2023-07-18T08:36:19.396Z,75.77
2023-07-18T08:41:23.018Z,73.18
2023-07-18T08:46:27.197Z,72.10
2023-07-18T08:51:31.854Z,73.43
2023-07-18T08:56:34.660Z,70.32
2023-07-18T09:01:52.561Z,72.31
2023-07-18T09:07:04.080Z,73.03
2023-07-18T09:12:07.543Z,74.33
2023-07-18T09:17:10.512Z,72.12
2023-07-18T09:22:15.211Z,70.84
2023-07-18T09:27:21.184Z,72.08
2023-07-18T09:32:24.886Z,70.62
2023-07-18T09:37:28.604Z,70.15
2023-07-18T09:42:33.493Z,67.60
2023-07-18T09:47:37.213Z,65.42
2023-07-18T09:52:51.551Z,64.35
2023-07-18T09:57:56.395Z,64.61
2023-07-18T10:02:59.780Z,63.64
2023-07-18T10:08:07.805Z,62.33
2023-07-18T10:13:10.637Z,62.46
2023-07-18T10:18:18.348Z,59.33
2023-07-18T10:23:40.291Z,58.96
2023-07-18T10:28:47.748Z,58.49
2023-07-18T10:34:07.261Z,57.51
2023-07-18T10:39:15.546Z,54.15
2023-07-18T10:44:18.292Z,53.11
2023-07-18T10:49:26.864Z,53.85
2023-07-18T10:54:29.628Z,54.04
2023-07-18T10:59:32.409Z,51.07
2023-07-18T11:04:35.146Z,49.14
2023-07-18T11:09:38.263Z,49.67
2023-07-18T11:14:41.732Z,48.85
2023-07-18T11:19:45.092Z,48.63
2023-07-18T11:24:47.956Z,47.97
2023-07-18T11:30:01.822Z,48.43
2023-07-18T11:35:07.786Z,48.27
2023-07-18T11:40:11.723Z,47.76
2023-07-18T11:45:24.646Z,48.23
2023-07-18T11:50:30.285Z,45.61
2023-07-18T11:55:33.684Z,44.34
2023-07-18T12:00:37.774Z,45.53
2023-07-18T12:05:40.530Z,45.89
2023-07-18T12:10:50.213Z,43.74
2023-07-18T12:15:59.427Z,44.28
2023-07-18T12:21:02.316Z,45.89
2023-07-18T12:26:05.153Z,46.04
2023-07-18T12:31:09.659Z,46.45
2023-07-18T12:36:14.119Z,48.14
2023-07-18T12:41:18.713Z,48.53
2023-07-18T12:46:27.861Z,48.00
2023-07-18T12:51:30.735Z,49.08
2023-07-18T12:56:34.926Z,50.60
2023-07-18T13:01:39.028Z,51.29
2023-07-18T13:06:41.856Z,51.67
2023-07-18T13:11:45.739Z,51.11
2023-07-18T13:16:48.724Z,50.45
2023-07-18T13:21:52.008Z,50.05
2023-07-18T13:26:54.872Z,49.48
2023-07-18T13:31:57.757Z,49.49
2023-07-18T13:37:00.693Z,50.28
2023-07-18T13:42:04.101Z,50.91
2023-07-18T13:47:07.468Z,50.49
2023-07-18T13:52:10.519Z,48.22
2023-07-18T13:57:13.261Z,44.12
2023-07-18T14:02:16.145Z,43.50
2023-07-18T14:07:19.506Z,44.18
2023-07-18T14:12:22.236Z,45.24
2023-07-18T14:17:26.119Z,44.92
2023-07-18T14:22:30.669Z,44.49
2023-07-18T14:27:33.776Z,43.97
2023-07-18T14:32:39.696Z,43.67
2023-07-18T14:37:42.567Z,44.19
2023-07-18T14:42:45.937Z,44.68
2023-07-18T14:47:48.970Z,44.58
2023-07-18T14:52:51.716Z,45.85
2023-07-18T14:57:54.585Z,46.77
2023-07-18T15:02:57.408Z,46.89
2023-07-18T15:08:00.346Z,46.50
2023-07-18T15:13:03.863Z,46.28
2023-07-18T15:18:07.385Z,44.98
2023-07-18T15:23:10.287Z,45.20
2023-07-18T15:28:16.308Z,46.02
2023-07-18T15:33:25.528Z,47.17
2023-07-18T15:38:29.800Z,47.57
2023-07-18T15:43:33.387Z,48.23
2023-07-18T15:48:37.433Z,48.25
2023-07-18T15:53:40.245Z,48.78
2023-07-18T15:58:43.002Z,49.42
2023-07-18T16:03:45.854Z,49.91
2023-07-18T16:08:49.042Z,51.09
2023-07-18T16:13:53.491Z,51.82
2023-07-18T16:18:59.975Z,51.98
2023-07-18T16:24:03.125Z,51.87
2023-07-18T16:29:05.937Z,51.67
2023-07-18T16:34:08.729Z,51.69
2023-07-18T16:39:11.495Z,52.28
2023-07-18T16:44:14.840Z,52.93
2023-07-18T16:49:17.678Z,53.79
2023-07-18T16:54:20.731Z,54.50
2023-07-18T16:59:23.576Z,54.89
2023-07-18T17:04:26.514Z,54.46
2023-07-18T17:09:29.399Z,52.40
2023-07-18T17:14:32.151Z,46.17
2023-07-18T17:19:39.477Z,41.60
2023-07-18T17:24:52.565Z,38.37
2023-07-18T17:29:55.384Z,37.46
2023-07-18T17:34:58.237Z,38.64
2023-07-18T17:40:02.146Z,37.56
2023-07-18T17:45:06.357Z,37.92
2023-07-18T17:50:09.518Z,38.01
2023-07-18T17:55:12.809Z,38.18
2023-07-18T18:00:16.035Z,39.52
2023-07-18T18:05:46.778Z,41.34
2023-07-18T18:10:49.955Z,43.22
2023-07-18T18:16:06.497Z,44.86
2023-07-18T18:21:12.214Z,46.38
2023-07-18T18:26:15.109Z,48.30
2023-07-18T18:31:18.099Z,49.90
2023-07-18T18:36:24.134Z,50.98
2023-07-18T18:41:27.372Z,52.02
2023-07-18T18:46:30.181Z,52.69
2023-07-18T18:51:33.402Z,53.51
2023-07-18T18:56:37.769Z,54.49
2023-07-18T19:01:40.639Z,55.74
2023-07-18T19:06:44.462Z,56.95
2023-07-18T19:11:47.198Z,58.20
2023-07-18T19:16:50.062Z,60.04
2023-07-18T19:21:52.854Z,63.15
2023-07-18T19:26:58.083Z,64.85
2023-07-18T19:32:01.585Z,66.26
2023-07-18T19:37:05.675Z,68.08
2023-07-18T19:42:08.563Z,70.06
2023-07-18T19:47:11.615Z,71.27
2023-07-18T19:52:15.243Z,72.74
2023-07-18T19:57:18.205Z,74.65
2023-07-18T20:02:21.221Z,77.08
2023-07-18T20:07:24.106Z,78.91
2023-07-18T20:12:26.846Z,80.86
2023-07-18T20:17:29.669Z,82.67
2023-07-18T20:22:32.447Z,83.84
2023-07-18T20:27:38.747Z,84.70
2023-07-18T20:32:41.964Z,85.60
2023-07-18T20:37:47.790Z,86.86
2023-07-18T20:42:52.103Z,88.60
2023-07-18T20:47:55.086Z,89.90
2023-07-18T20:52:57.968Z,90.77
2023-07-18T20:58:01.053Z,91.54
2023-07-18T21:03:05.217Z,92.18
2023-07-18T21:08:08.200Z,93.12
2023-07-18T21:13:11.141Z,93.94
2023-07-18T21:18:14.021Z,94.39
2023-07-18T21:23:16.901Z,94.83
2023-07-18T21:28:19.696Z,95.52
2023-07-18T21:33:22.834Z,96.55
2023-07-18T21:38:26.109Z,97.36
2023-07-18T21:43:29.034Z,98.05
2023-07-18T21:48:32.034Z,98.76
2023-07-18T21:53:35.515Z,99.78
2023-07-18T21:58:38.386Z,100.00
2023-07-18T22:03:41.543Z,100.00
2023-07-18T22:08:44.433Z,100.00
2023-07-18T22:13:48.647Z,100.00
2023-07-18T22:18:51.589Z,100.00
2023-07-18T22:23:54.841Z,100.00
2023-07-18T22:28:57.963Z,100.00
2023-07-18T22:34:00.668Z,100.00
2023-07-18T22:39:04.730Z,100.00
2023-07-18T22:44:07.599Z,100.00
2023-07-18T22:49:10.787Z,100.00
2023-07-18T22:54:13.537Z,100.00
2023-07-18T22:59:16.267Z,100.00
2023-07-18T23:04:18.992Z,100.00
2023-07-18T23:09:21.859Z,100.00
2023-07-18T23:14:25.100Z,100.00
2023-07-18T23:19:27.866Z,100.00
2023-07-18T23:24:31.081Z,100.00
2023-07-18T23:29:33.858Z,100.00
2023-07-18T23:34:36.954Z,100.00
2023-07-18T23:39:39.688Z,100.00
2023-07-18T23:44:43.255Z,100.00
2023-07-18T23:49:46.037Z,100.00
2023-07-18T23:54:49.175Z,100.00
2023-07-18T23:59:51.919Z,100.00
